Time;durP1;ratioP1;P1;durP2;ratioP2;P2;SDS_P1;SDS_P2;PMS_P1;PMS_P2;Temp;Humidity;BMP_temperature;BMP_pressure;BME280_temperature;BME280_humidity;BME280_pressure;Samples;Min_cycle;Max_cycle;Signal;HPM_P1;HPM_P2
2021/08/24 13:04:14;;;;;;;5.68;2.28;;;;;;;;;;1063004;27;100014;-71
2021/08/24 13:04:55;;;;;;;5.05;2.50;;;;;;;;;;1056392;27;100191;-71
2021/08/24 13:05:38;;;;;;;6.18;2.40;;;;;;;;;;1047563;27;100147;-72
2021/08/24 13:06:22;;;;;;;4.55;2.40;;;;;;;;;;1046085;27;101319;-74
2021/08/24 13:07:16;;;;;;;5.20;2.55;;;;;;;;;;1048197;27;99889;-72
2021/08/24 13:08:11;;;;;;;6.45;2.03;;;;;;;;;;1050978;27;101472;-71
2021/08/24 13:08:43;;;;;;;5.30;2.05;;;;;;;;;;1052868;27;99998;-70
2021/08/24 13:09:27;;;;;;;5.50;2.47;;;;;;;;;;1051123;27;100421;-78
2021/08/24 13:10:13;;;;;;;4.45;2.17;;;;;;;;;;1043528;27;99986;-72
2021/08/24 13:10:46;;;;;;;4.85;2.20;;;;;;;;;;1038138;28;101634;-75
2021/08/24 13:11:39;;;;;;;4.65;1.88;;;;;;;;;;1035514;28;100078;-74
2021/08/24 13:12:16;;;;;;;5.30;2.22;;;;;;;;;;1038491;28;100299;-70
2021/08/24 13:12:47;;;;;;;8.13;2.53;;;;;;;;;;1039618;27;100031;-69
2021/08/24 13:13:27;;;;;;;4.00;2.13;;;;;;;;;;1046889;27;100854;-78
2021/08/24 13:13:59;;;;;;;5.00;2.20;;;;;;;;;;1047931;27;100297;-72
2021/08/24 13:14:52;;;;;;;5.90;2.65;;;;;;;;;;1048380;27;100416;-76
2021/08/24 13:15:27;;;;;;;5.88;2.83;;;;;;;;;;1052707;27;99978;-73
2021/08/24 13:16:13;;;;;;;5.18;2.42;;;;;;;;;;1051358;27;100831;-77
2021/08/24 13:16:53;;;;;;;5.13;2.42;;;;;;;;;;1048063;27;100132;-74
2021/08/24 13:17:35;;;;;;;5.38;2.53;;;;;;;;;;1047020;27;100332;-76
2021/08/24 13:18:22;;;;;;;3.75;2.00;;;;;;;;;;1048230;27;99542;-79
2021/08/24 13:18:58;;;;;;;6.60;2.60;;;;;;;;;;1051294;27;100333;-73
2021/08/24 13:19:29;;;;;;;4.03;2.10;;;;;;;;;;1048446;27;99854;-67
2021/08/24 13:20:03;;;;;;;4.97;2.15;;;;;;;;;;1046573;27;101313;-68
2021/08/24 13:20:39;;;;;;;5.95;2.20;;;;;;;;;;1048135;27;99919;-70
2021/08/24 13:21:25;;;;;;;6.22;2.25;;;;;;;;;;1044223;27;100486;-68
2021/08/24 13:21:59;;;;;;;7.70;2.38;;;;;;;;;;1048151;27;100159;-67
2021/08/24 13:22:39;;;;;;;5.85;2.67;;;;;;;;;;1046694;27;102995;-68
2021/08/24 13:23:17;;;;;;;4.80;2.10;;;;;;;;;;1048275;27;99827;-68
2021/08/24 13:23:52;;;;;;;5.00;2.00;;;;;;;;;;1046617;27;100227;-66
2021/08/24 13:24:55;;;;;;;3.67;2.17;;;;;;;;;;1046912;27;100107;-68
2021/08/24 13:25:29;;;;;;;3.75;2.50;;;;;;;;;;1025866;28;100368;-68
2021/08/24 13:26:21;;;;;;;3.83;2.88;;;;;;;;;;1027872;28;100308;-71
2021/08/24 13:27:02;;;;;;;5.40;2.63;;;;;;;;;;1047028;27;100601;-72
2021/08/24 13:27:42;;;;;;;8.15;2.65;;;;;;;;;;1052842;27;100077;-71
2021/08/24 13:28:27;;;;;;;5.75;2.53;;;;;;;;;;1047069;27;100285;-76
2021/08/24 13:28:58;;;;;;;10.20;3.28;;;;;;;;;;1047862;27;99881;-74
2021/08/24 13:29:34;;;;;;;3.63;2.22;;;;;;;;;;1046846;27;100251;-75
2021/08/24 13:30:09;;;;;;;4.90;2.63;;;;;;;;;;1046802;27;100088;-76
2021/08/24 13:30:45;;;;;;;3.25;2.50;;;;;;;;;;1047059;27;100254;-72
2021/08/24 13:31:42;;;;;;;3.63;2.30;;;;;;;;;;1040028;28;99978;-78
2021/08/24 13:32:55;;;;;;;4.60;2.22;;;;;;;;;;1042494;27;100256;-75
2021/08/24 13:33:38;;;;;;;7.65;3.13;;;;;;;;;;1035165;28;99983;-75
2021/08/24 13:34:20;;;;;;;5.13;2.47;;;;;;;;;;1034131;28;100816;-72
2021/08/24 13:34:55;;;;;;;6.20;2.33;;;;;;;;;;1031425;28;99827;-73
2021/08/24 13:35:33;;;;;;;4.28;2.25;;;;;;;;;;1025873;28;100286;-74
2021/08/24 13:36:43;;;;;;;2.72;2.20;;;;;;;;;;1026934;28;99979;-73
2021/08/24 13:37:33;;;;;;;4.57;2.30;;;;;;;;;;1029106;28;101721;-77
2021/08/24 13:38:24;;;;;;;;;;;;;;;;;;1031801;28;100074;-72
2021/08/24 13:39:00;;;;;;;4.30;2.10;;;;;;;;;;1030822;28;100477;-72
2021/08/24 13:39:30;;;;;;;5.05;2.28;;;;;;;;;;1047204;27;99940;-69
2021/08/24 13:40:05;;;;;;;5.38;2.25;;;;;;;;;;1037721;28;102400;-69
2021/08/24 13:40:36;;;;;;;4.25;2.53;;;;;;;;;;1039761;28;100017;-74
2021/08/24 13:41:19;;;;;;;4.95;2.13;;;;;;;;;;1039338;27;100295;-74
2021/08/24 13:41:50;;;;;;;4.60;2.50;;;;;;;;;;1049108;27;99871;-71
2021/08/24 13:42:21;;;;;;;4.93;2.80;;;;;;;;;;1051313;27;100244;-71
2021/08/24 13:42:53;;;;;;;5.95;2.35;;;;;;;;;;1052986;27;100268;-72
2021/08/24 13:43:27;;;;;;;5.10;2.50;;;;;;;;;;1046691;27;101589;-75
2021/08/24 13:44:01;;;;;;;4.35;2.55;;;;;;;;;;1047991;27;100177;-71
2021/08/24 13:44:40;;;;;;;6.57;2.80;;;;;;;;;;1046814;27;100370;-78
2021/08/24 13:45:17;;;;;;;;;;;;;;;;;;1051342;27;100018;-77
2021/08/24 13:45:51;;;;;;;5.28;2.53;;;;;;;;;;1051306;27;100349;-70
2021/08/24 13:46:28;;;;;;;6.47;2.20;;;;;;;;;;1052834;27;100018;-72
2021/08/24 13:47:02;;;;;;;4.40;2.33;;;;;;;;;;1051546;27;100274;-75
2021/08/24 13:47:33;;;;;;;4.88;2.58;;;;;;;;;;1052573;27;100006;-71
2021/08/24 13:48:06;;;;;;;4.88;2.17;;;;;;;;;;1046690;27;100378;-73
2021/08/24 13:48:38;;;;;;;4.43;2.72;;;;;;;;;;1043599;27;99782;-71
2021/08/24 13:49:15;;;;;;;6.05;2.20;;;;;;;;;;1038463;28;100251;-74
2021/08/24 13:49:53;;;;;;;4.38;2.38;;;;;;;;;;1041252;27;99769;-77
2021/08/24 13:50:37;;;;;;;5.00;2.53;;;;;;;;;;1040683;27;100227;-71
2021/08/24 13:51:11;;;;;;;7.10;2.88;;;;;;;;;;1047772;27;99915;-76
2021/08/24 13:51:50;;;;;;;3.90;2.35;;;;;;;;;;1046645;27;100278;-74
2021/08/24 13:52:39;;;;;;;4.45;2.58;;;;;;;;;;1047725;27;99834;-71
2021/08/24 13:53:21;;;;;;;7.05;2.75;;;;;;;;;;1046822;27;100622;-72
2021/08/24 13:53:55;;;;;;;5.55;2.78;;;;;;;;;;1043513;27;100692;-74
2021/08/24 13:54:36;;;;;;;3.78;2.28;;;;;;;;;;1042686;27;100893;-70
2021/08/24 13:55:24;;;;;;;5.80;2.40;;;;;;;;;;1034682;28;100229;-70
2021/08/24 13:56:07;;;;;;;5.70;2.22;;;;;;;;;;1038029;28;100271;-74
2021/08/24 13:56:39;;;;;;;5.00;2.20;;;;;;;;;;1039992;27;99945;-75
2021/08/24 13:57:12;;;;;;;6.18;2.78;;;;;;;;;;1050976;27;101967;-70
2021/08/24 13:57:43;;;;;;;5.38;2.30;;;;;;;;;;1043426;27;99947;-72
2021/08/24 13:58:25;;;;;;;4.35;2.42;;;;;;;;;;1042334;27;101514;-70
2021/08/24 13:58:59;;;;;;;5.95;2.45;;;;;;;;;;1043766;27;100098;-71
2021/08/24 13:59:35;;;;;;;4.80;2.10;;;;;;;;;;1047205;27;100883;-73
2021/08/24 14:00:07;;;;;;;2.85;2.53;;;;;;;;;;1043476;27;99966;-72
2021/08/24 14:01:14;;;;;;;8.55;2.50;;;;;;;;;;1042609;27;100308;-75
2021/08/24 14:01:46;;;;;;;4.97;2.53;;;;;;;;;;1046037;27;100109;-75
2021/08/24 14:02:18;;;;;;;3.83;2.20;;;;;;;;;;1050979;27;101866;-71
2021/08/24 14:02:49;;;;;;;5.97;2.47;;;;;;;;;;1047089;27;100082;-74
2021/08/24 14:03:22;;;;;;;7.00;3.10;;;;;;;;;;1046685;27;100229;-71
2021/08/24 14:03:58;;;;;;;7.28;2.75;;;;;;;;;;1047623;27;100070;-70
2021/08/24 14:04:44;;;;;;;4.60;2.25;;;;;;;;;;1043879;27;100235;-76
2021/08/24 14:05:19;;;;;;;4.65;2.53;;;;;;;;;;1047949;27;100053;-75
2021/08/24 14:05:55;;;;;;;5.03;2.17;;;;;;;;;;1042168;27;101822;-71
2021/08/24 14:06:50;;;;;;;8.23;2.80;;;;;;;;;;1048282;27;99971;-73
2021/08/24 14:07:34;;;;;;;4.32;2.70;;;;;;;;;;1037954;28;103246;-68
2021/08/24 14:08:05;;;;;;;6.85;2.90;;;;;;;;;;1043903;27;99986;-71
2021/08/24 14:08:37;;;;;;;9.40;2.67;;;;;;;;;;1037358;28;102262;-70
2021/08/24 14:09:21;;;;;;;5.30;2.38;;;;;;;;;;1043867;27;100134;-71
2021/08/24 14:10:02;;;;;;;6.35;3.03;;;;;;;;;;1046572;27;100321;-70
2021/08/24 14:10:33;;;;;;;7.63;2.85;;;;;;;;;;1051785;27;100092;-70
2021/08/24 14:11:04;;;;;;;10.65;3.03;;;;;;;;;;1051040;27;100292;-74
2021/08/24 14:11:38;;;;;;;8.02;2.97;;;;;;;;;;1052538;27;99937;-69
2021/08/24 14:12:19;;;;;;;6.78;3.28;;;;;;;;;;1046558;27;100243;-72
2021/08/24 14:12:51;;;;;;;6.80;3.08;;;;;;;;;;1043381;27;99970;-68
2021/08/24 14:13:23;;;;;;;8.15;3.45;;;;;;;;;;1042439;27;100271;-68
2021/08/24 14:13:54;;;;;;;10.73;2.75;;;;;;;;;;1043594;27;99943;-78
2021/08/24 14:14:39;;;;;;;5.30;3.05;;;;;;;;;;1039254;27;101560;-75
2021/08/24 14:15:25;;;;;;;5.07;2.42;;;;;;;;;;1043641;27;99883;-76
2021/08/24 14:15:56;;;;;;;6.75;2.55;;;;;;;;;;1039109;28;100281;-76
2021/08/24 14:16:34;;;;;;;10.18;3.15;;;;;;;;;;1040531;28;99868;-74
2021/08/24 14:17:27;;;;;;;6.80;3.08;;;;;;;;;;1042832;27;100229;-75
2021/08/24 14:18:07;;;;;;;5.38;2.38;;;;;;;;;;1044834;27;100009;-73
2021/08/24 14:18:38;;;;;;;6.80;2.77;;;;;;;;;;1039556;28;100258;-72
2021/08/24 14:19:29;;;;;;;8.93;2.83;;;;;;;;;;1040605;28;99791;-76
2021/08/24 14:20:06;;;;;;;6.65;3.08;;;;;;;;;;1031120;28;100356;-72
2021/08/24 14:20:40;;;;;;;5.97;2.60;;;;;;;;;;1040145;28;99983;-75
2021/08/24 14:21:13;;;;;;;8.15;2.95;;;;;;;;;;1039595;28;100388;-69
2021/08/24 14:21:44;;;;;;;7.38;2.78;;;;;;;;;;1040017;27;100263;-75
2021/08/24 14:22:16;;;;;;;4.93;2.67;;;;;;;;;;1043373;27;101459;-75
2021/08/24 14:22:50;;;;;;;7.25;2.90;;;;;;;;;;1044945;27;100211;-73
2021/08/24 14:23:45;;;;;;;6.93;2.67;;;;;;;;;;1044263;27;101445;-71
2021/08/24 14:24:19;;;;;;;9.43;3.42;;;;;;;;;;1036048;28;99981;-74
2021/08/24 14:24:51;;;;;;;3.65;2.60;;;;;;;;;;1035120;28;100527;-73
2021/08/24 14:25:30;;;;;;;7.78;2.88;;;;;;;;;;1036457;28;100102;-75
2021/08/24 14:26:02;;;;;;;6.93;2.60;;;;;;;;;;1041107;27;100402;-74
2021/08/24 14:26:38;;;;;;;6.72;2.97;;;;;;;;;;1045191;27;99293;-76
2021/08/24 14:27:14;;;;;;;18.55;6.25;;;;;;;;;;1040125;28;100902;-78
2021/08/24 14:27:45;;;;;;;253.40;86.97;;;;;;;;;;1036916;28;99320;-74
2021/08/24 14:28:33;;;;;;;181.98;54.53;;;;;;;;;;1034356;28;102104;-73
2021/08/24 14:29:11;;;;;;;156.30;52.17;;;;;;;;;;1041082;28;99842;-79
2021/08/24 14:29:43;;;;;;;123.57;40.47;;;;;;;;;;1039273;28;100882;-74
2021/08/24 14:30:16;;;;;;;118.10;35.80;;;;;;;;;;1044462;27;100015;-78
2021/08/24 14:30:49;;;;;;;86.50;25.13;;;;;;;;;;1035126;28;100465;-79
2021/08/24 14:31:23;;;;;;;60.88;20.50;;;;;;;;;;1037254;28;100232;-80
2021/08/24 14:31:58;;;;;;;49.75;17.05;;;;;;;;;;1039406;28;100494;-79
2021/08/24 14:32:38;;;;;;;47.63;15.05;;;;;;;;;;1043855;27;99796;-80
2021/08/24 14:33:26;;;;;;;25.67;9.30;;;;;;;;;;1048375;27;100309;-78
2021/08/24 14:34:30;;;;;;;25.77;10.45;;;;;;;;;;1049468;27;100192;-79
2021/08/24 14:35:02;;;;;;;24.60;8.68;;;;;;;;;;1043800;27;100275;-78
